createdAt,value
2019-03-22T00:02:16.567Z,101779.73
2019-03-22T00:04:45.084Z,101778.14
2019-03-22T00:07:13.536Z,101772.81
2019-03-22T00:09:41.989Z,101769.76
2019-03-22T00:12:29.725Z,101769.83
2019-03-22T00:14:58.178Z,101767.70
2019-03-22T00:20:54.101Z,101763.38
2019-03-22T00:23:22.550Z,101761.70
2019-03-22T00:25:51.007Z,101764.39
2019-03-22T00:28:19.492Z,101764.22
2019-03-22T00:31:07.262Z,101758.83
2019-03-22T00:36:29.360Z,101752.18
2019-03-22T00:38:57.818Z,101742.38
2019-03-22T00:41:26.340Z,101743.78
2019-03-22T00:43:54.756Z,101743.34
2019-03-22T00:46:23.205Z,101742.81
2019-03-22T00:48:51.695Z,101735.77
2019-03-22T00:51:20.165Z,101742.66
2019-03-22T00:53:48.649Z,101742.59
2019-03-22T00:58:51.622Z,101738.50
2019-03-22T01:01:39.434Z,101739.81
2019-03-22T01:04:07.889Z,101736.45
2019-03-22T01:06:55.609Z,101743.98
2019-03-22T01:09:24.092Z,101743.63
2019-03-22T01:11:52.529Z,101739.86
2019-03-22T01:16:55.454Z,101737.35
2019-03-22T01:19:43.341Z,101738.39
2019-03-22T01:22:11.790Z,101741.98
2019-03-22T01:24:59.480Z,101737.84
2019-03-22T01:27:47.259Z,101735.27
2019-03-22T01:30:55.734Z,101728.22
2019-03-22T01:33:43.501Z,101726.73
2019-03-22T01:38:45.772Z,101724.38
2019-03-22T01:41:33.667Z,101721.11
2019-03-22T01:44:21.303Z,101728.13
2019-03-22T01:46:49.790Z,101723.49
2019-03-22T01:49:18.236Z,101723.30
2019-03-22T01:52:06.002Z,101723.84
2019-03-22T01:54:34.454Z,101722.07
2019-03-22T01:57:02.911Z,101721.09
2019-03-22T01:59:50.668Z,101723.12
2019-03-22T02:02:19.112Z,101721.67
2019-03-22T02:04:47.565Z,101720.20
2019-03-22T02:07:16.047Z,101718.37
2019-03-22T02:09:44.493Z,101713.22
2019-03-22T02:12:12.940Z,101723.17
2019-03-22T02:17:15.244Z,101721.19
2019-03-22T02:20:02.973Z,101731.25
2019-03-22T02:22:31.421Z,101726.30
2019-03-22T02:25:19.247Z,101724.83
2019-03-22T02:28:27.702Z,101735.52
2019-03-22T02:33:30.523Z,101738.02
2019-03-22T02:35:59.017Z,101728.67
2019-03-22T02:38:27.465Z,101731.50
2019-03-22T02:40:55.921Z,101727.78
2019-03-22T02:45:58.129Z,101726.26
2019-03-22T02:48:26.551Z,101727.27
2019-03-22T02:53:29.384Z,101724.12
2019-03-22T02:55:57.966Z,101719.70
2019-03-22T03:01:41.429Z,101718.73
2019-03-22T03:04:29.306Z,101718.94
2019-03-22T03:07:16.960Z,101709.77
2019-03-22T03:10:04.890Z,101719.58
2019-03-22T03:12:33.338Z,101720.54
2019-03-22T03:15:01.787Z,101726.00
2019-03-22T03:17:30.269Z,101721.95
2019-03-22T03:19:58.741Z,101718.02
2019-03-22T03:22:27.183Z,101720.66
2019-03-22T03:24:55.671Z,101717.15
2019-03-22T03:27:24.114Z,101712.38
2019-03-22T03:29:52.567Z,101711.70
2019-03-22T03:32:21.085Z,101705.39
2019-03-22T03:34:49.552Z,101711.82
2019-03-22T03:37:18.020Z,101719.13
2019-03-22T03:42:20.409Z,101717.50
2019-03-22T03:45:08.100Z,101717.17
2019-03-22T03:47:36.548Z,101723.72
2019-03-22T03:50:44.954Z,101717.48
2019-03-22T03:53:13.473Z,101721.61
2019-03-22T03:56:01.300Z,101719.28
2019-03-22T03:58:29.753Z,101727.59
2019-03-22T04:00:58.212Z,101719.09
2019-03-22T04:03:26.730Z,101721.91
2019-03-22T04:05:55.182Z,101718.82
2019-03-22T04:08:23.630Z,101715.73
2019-03-22T04:13:45.278Z,101726.50
2019-03-22T04:21:42.773Z,101712.66
2019-03-22T04:24:11.286Z,101703.22
2019-03-22T04:26:39.718Z,101704.20
2019-03-22T04:29:08.618Z,101706.66
2019-03-22T04:31:38.403Z,101708.50
2019-03-22T04:34:06.866Z,101708.60
2019-03-22T04:36:35.308Z,101705.79
2019-03-22T04:44:32.094Z,101710.04
2019-03-22T04:47:40.504Z,101703.32
2019-03-22T04:50:48.867Z,101703.08
2019-03-22T04:53:57.293Z,101696.06
2019-03-22T04:57:05.672Z,101700.14
2019-03-22T05:00:14.081Z,101704.95
2019-03-22T05:03:22.446Z,101709.33
2019-03-22T05:06:30.916Z,101715.56
2019-03-22T05:09:39.282Z,101710.41
2019-03-22T05:12:47.690Z,101720.84
2019-03-22T05:15:56.078Z,101715.05
2019-03-22T05:19:04.555Z,101719.95
2019-03-22T05:22:12.933Z,101717.38
2019-03-22T05:25:21.420Z,101711.44
2019-03-22T05:28:29.791Z,101714.20
2019-03-22T05:31:36.944Z,101714.48
2019-03-22T05:34:05.397Z,101723.49
2019-03-22T05:36:33.849Z,101720.55
2019-03-22T05:39:02.333Z,101719.44
2019-03-22T05:41:30.786Z,101723.88
2019-03-22T05:44:18.552Z,101727.94
2019-03-22T05:46:49.003Z,101718.03
2019-03-22T05:49:17.182Z,101716.96
2019-03-22T05:51:45.670Z,101715.55
2019-03-22T05:54:14.117Z,101724.48
2019-03-22T05:56:42.570Z,101723.16
2019-03-22T05:59:11.067Z,101721.34
2019-03-22T06:01:58.773Z,101730.07
2019-03-22T06:07:00.824Z,101736.99
2019-03-22T06:09:48.455Z,101736.13
2019-03-22T06:12:16.954Z,101739.09
2019-03-22T06:14:45.409Z,101736.61
2019-03-22T06:19:47.464Z,101741.22
2019-03-22T06:22:15.927Z,101747.91
2019-03-22T06:24:44.416Z,101749.36
2019-03-22T06:27:12.943Z,101749.54
2019-03-22T06:29:41.397Z,101749.13
2019-03-22T06:34:43.930Z,101740.55
2019-03-22T06:37:12.450Z,101737.38
2019-03-22T06:39:40.936Z,101747.00
2019-03-22T06:42:28.582Z,101750.38
2019-03-22T06:47:49.835Z,101748.75
2019-03-22T06:50:18.321Z,101745.23
2019-03-22T06:52:46.794Z,101749.09
2019-03-22T06:55:15.267Z,101749.03
2019-03-22T06:57:43.759Z,101752.23
2019-03-22T07:00:52.169Z,101752.37
2019-03-22T07:03:20.725Z,101763.23
2019-03-22T07:06:08.524Z,101756.47
2019-03-22T07:08:37.102Z,101767.16
2019-03-22T07:11:24.875Z,101767.44
2019-03-22T07:13:53.437Z,101771.03
2019-03-22T07:16:21.885Z,101765.61
2019-03-22T07:18:50.336Z,101763.48
2019-03-22T07:21:18.871Z,101758.77
2019-03-22T07:23:47.333Z,101767.84
2019-03-22T07:26:15.792Z,101766.59
2019-03-22T07:28:44.354Z,101762.44
2019-03-22T07:31:12.815Z,101755.66
2019-03-22T07:33:41.277Z,101764.16
2019-03-22T07:36:09.782Z,101760.16
2019-03-22T07:38:38.237Z,101761.77
2019-03-22T07:41:06.753Z,101764.49
2019-03-22T07:43:54.507Z,101756.55
2019-03-22T07:46:42.148Z,101755.65
2019-03-22T07:49:10.629Z,101751.05
2019-03-22T07:51:58.397Z,101747.79
2019-03-22T07:57:00.753Z,101749.68
2019-03-22T07:59:29.202Z,101757.64
2019-03-22T08:04:31.588Z,101752.95
2019-03-22T08:07:01.336Z,101746.06
2019-03-22T08:09:51.273Z,101747.12
2019-03-22T08:14:53.690Z,101748.72
2019-03-22T08:17:41.463Z,101749.53
2019-03-22T08:20:49.799Z,101745.37
2019-03-22T08:23:58.263Z,101754.61
2019-03-22T08:26:26.719Z,101746.25
2019-03-22T08:28:55.181Z,101748.11
2019-03-22T08:31:42.901Z,101746.42
2019-03-22T08:34:11.376Z,101742.23
2019-03-22T08:36:39.806Z,101748.79
2019-03-22T08:39:48.288Z,101740.62
2019-03-22T08:42:16.815Z,101738.34
2019-03-22T08:44:45.316Z,101733.12
2019-03-22T08:47:34.573Z,101729.69
2019-03-22T08:50:22.458Z,101727.95
2019-03-22T08:55:25.391Z,101726.64
2019-03-22T08:57:53.854Z,101728.41
2019-03-22T09:00:22.405Z,101725.30
2019-03-22T09:02:50.878Z,101727.06
2019-03-22T09:05:19.374Z,101722.66
2019-03-22T09:07:47.865Z,101725.27
2019-03-22T09:10:56.256Z,101720.77
2019-03-22T09:13:24.730Z,101723.38
2019-03-22T09:15:53.185Z,101721.67
2019-03-22T09:18:21.658Z,101718.02
2019-03-22T09:20:50.226Z,101723.66
2019-03-22T09:23:18.686Z,101719.16
2019-03-22T09:26:06.362Z,101718.58
2019-03-22T09:28:54.149Z,101718.12
2019-03-22T09:31:22.634Z,101703.41
2019-03-22T09:33:51.149Z,101702.81
2019-03-22T09:36:19.719Z,101702.23
2019-03-22T09:41:41.961Z,101696.94
2019-03-22T09:44:42.357Z,101696.17
2019-03-22T09:46:59.923Z,101695.84
2019-03-22T09:49:28.385Z,101691.80
2019-03-22T09:54:31.336Z,101693.86
2019-03-22T09:56:59.852Z,101694.89
2019-03-22T09:59:28.369Z,101692.60
2019-03-22T10:01:56.849Z,101692.82
2019-03-22T10:04:25.312Z,101685.97
2019-03-22T10:06:53.892Z,101685.68
2019-03-22T10:09:22.311Z,101680.77
2019-03-22T10:11:50.837Z,101676.68
2019-03-22T10:14:21.370Z,101682.53
2019-03-22T10:16:49.494Z,101682.64
2019-03-22T10:19:18.002Z,101682.61
2019-03-22T10:24:20.093Z,101674.61
2019-03-22T10:27:07.832Z,101671.48
2019-03-22T10:29:55.542Z,101670.77
2019-03-22T10:34:57.800Z,101656.42
2019-03-22T10:37:26.266Z,101650.90
2019-03-22T10:48:16.898Z,101635.37
2019-03-22T10:50:45.432Z,101633.78
2019-03-22T10:53:13.923Z,101633.14
2019-03-22T10:55:42.417Z,101632.31
2019-03-22T11:01:00.047Z,101626.19
2019-03-22T11:03:28.546Z,101616.94
2019-03-22T11:06:25.541Z,101618.00
2019-03-22T11:08:46.416Z,101613.11
2019-03-22T11:14:21.566Z,101606.61
2019-03-22T11:16:50.021Z,101609.35
2019-03-22T11:19:37.842Z,101608.94
2019-03-22T11:22:25.513Z,101606.83
2019-03-22T11:24:53.979Z,101601.58
2019-03-22T11:27:22.439Z,101603.06
2019-03-22T11:29:50.921Z,101595.09
2019-03-22T11:35:53.727Z,101597.64
2019-03-22T11:41:16.041Z,101591.39
2019-03-22T11:49:13.234Z,101579.27
2019-03-22T11:52:01.016Z,101577.33
2019-03-22T11:57:22.887Z,101579.58
2019-03-22T12:02:25.149Z,101569.52
2019-03-22T12:04:53.653Z,101560.27
2019-03-22T12:07:22.113Z,101553.66
2019-03-22T12:10:10.001Z,101560.41
2019-03-22T12:12:38.461Z,101548.19
2019-03-22T12:15:46.887Z,101544.08
2019-03-22T12:18:15.343Z,101550.59
2019-03-22T12:20:43.843Z,101550.92
2019-03-22T12:23:12.363Z,101544.95
2019-03-22T12:25:40.818Z,101540.28
2019-03-22T12:28:09.279Z,101536.93
2019-03-22T12:30:57.123Z,101532.98
2019-03-22T12:33:25.588Z,101524.86
2019-03-22T12:35:54.048Z,101523.57
2019-03-22T12:38:41.738Z,101521.14
2019-03-22T12:41:10.269Z,101517.92
2019-03-22T12:43:38.723Z,101515.03
2019-03-22T12:46:07.233Z,101514.70
2019-03-22T12:48:35.700Z,101500.98
2019-03-22T12:53:57.246Z,101491.92
2019-03-22T12:56:25.714Z,101482.35
2019-03-22T12:58:54.213Z,101484.83
2019-03-22T13:01:22.670Z,101473.47
2019-03-22T13:03:51.147Z,101479.39
2019-03-22T13:06:38.911Z,101474.61
2019-03-22T13:09:47.293Z,101459.52
2019-03-22T13:14:49.709Z,101460.78
2019-03-22T13:20:51.199Z,101456.27
2019-03-22T13:23:21.207Z,101445.73
2019-03-22T13:25:49.673Z,101438.71
2019-03-22T13:28:18.144Z,101441.56
2019-03-22T13:30:46.657Z,101428.72
2019-03-22T13:33:15.128Z,101435.31
2019-03-22T13:35:50.802Z,101433.89
2019-03-22T13:40:52.978Z,101432.58
2019-03-22T13:43:40.757Z,101428.47
2019-03-22T13:46:28.476Z,101425.44
2019-03-22T13:49:16.162Z,101420.16
2019-03-22T13:51:44.641Z,101416.07
2019-03-22T13:54:32.263Z,101421.05
2019-03-22T13:57:19.913Z,101408.48
2019-03-22T14:02:23.059Z,101405.25
2019-03-22T14:04:52.944Z,101393.67
2019-03-22T14:07:21.404Z,101396.69
2019-03-22T14:09:51.954Z,101402.00
2019-03-22T14:12:20.163Z,101395.55
2019-03-22T14:14:48.619Z,101388.22
2019-03-22T14:17:36.363Z,101382.60
2019-03-22T14:20:44.738Z,101383.33
2019-03-22T14:26:06.843Z,101381.07
2019-03-22T14:28:35.337Z,101373.03
2019-03-22T14:31:03.806Z,101366.15
2019-03-22T14:33:51.552Z,101368.76
2019-03-22T14:36:39.259Z,101357.03
2019-03-22T14:39:47.687Z,101358.86
2019-03-22T14:42:16.139Z,101355.37
2019-03-22T14:44:44.601Z,101344.97
2019-03-22T14:52:21.331Z,101336.45
2019-03-22T14:54:49.822Z,101331.71
2019-03-22T14:57:47.793Z,101330.51
2019-03-22T15:00:47.681Z,101332.16
2019-03-22T15:03:35.328Z,101326.94
2019-03-22T15:06:03.900Z,101331.27
2019-03-22T15:08:32.361Z,101321.85
2019-03-22T15:11:00.815Z,101319.59
2019-03-22T15:16:44.530Z,101315.77
2019-03-22T15:19:32.194Z,101326.22
2019-03-22T15:24:55.377Z,101315.27
2019-03-22T15:33:11.332Z,101310.03
2019-03-22T15:35:59.052Z,101312.69
2019-03-22T15:38:46.989Z,101306.22
2019-03-22T15:41:36.367Z,101306.22
2019-03-22T15:44:44.873Z,101307.19
2019-03-22T15:47:32.651Z,101306.59
2019-03-22T15:50:01.162Z,101307.50
2019-03-22T15:52:29.625Z,101311.46
2019-03-22T15:55:17.391Z,101302.15
2019-03-22T15:57:45.922Z,101306.64
2019-03-22T16:00:54.347Z,101302.50
2019-03-22T16:09:05.281Z,101303.84
2019-03-22T16:14:26.827Z,101299.88
2019-03-22T16:19:29.082Z,101287.98
2019-03-22T16:21:57.598Z,101285.38
2019-03-22T16:24:45.335Z,101289.20
2019-03-22T16:27:13.863Z,101286.17
2019-03-22T16:29:54.238Z,101283.89
2019-03-22T16:32:22.707Z,101285.71
2019-03-22T16:34:51.168Z,101289.18
2019-03-22T16:37:39.233Z,101285.11
2019-03-22T16:40:47.616Z,101290.48
2019-03-22T16:43:35.368Z,101289.70
2019-03-22T16:46:23.146Z,101294.23
2019-03-22T16:48:51.710Z,101291.64
2019-03-22T16:51:20.174Z,101286.73
2019-03-22T16:54:07.926Z,101295.90
2019-03-22T16:56:36.403Z,101291.55
2019-03-22T16:59:24.515Z,101293.14
2019-03-22T17:02:12.190Z,101291.86
2019-03-22T17:04:40.680Z,101286.45
2019-03-22T17:07:09.139Z,101287.80
2019-03-22T17:09:37.597Z,101294.08
2019-03-22T17:12:25.333Z,101293.10
2019-03-22T17:14:53.790Z,101289.19
2019-03-22T17:17:22.247Z,101290.08
2019-03-22T17:19:50.730Z,101296.25
2019-03-22T17:22:19.188Z,101297.75
2019-03-22T17:24:47.645Z,101290.84
2019-03-22T17:27:35.401Z,101288.07
2019-03-22T17:30:43.772Z,101287.52
2019-03-22T17:33:12.264Z,101293.39
2019-03-22T17:35:59.963Z,101294.93
2019-03-22T17:38:28.475Z,101295.48
2019-03-22T17:40:56.948Z,101292.03
2019-03-22T17:43:25.391Z,101290.58
2019-03-22T17:45:53.891Z,101291.88
2019-03-22T17:48:22.355Z,101293.84
2019-03-22T17:51:10.089Z,101290.53
2019-03-22T17:53:38.547Z,101288.67
2019-03-22T17:56:07.013Z,101297.86
2019-03-22T17:58:35.508Z,101293.83
2019-03-22T18:01:23.276Z,101299.55
2019-03-22T18:03:51.800Z,101291.98
2019-03-22T18:06:39.449Z,101302.34
2019-03-22T18:09:27.258Z,101297.22
2019-03-22T18:11:55.712Z,101297.24
2019-03-22T18:14:24.173Z,101303.39
2019-03-22T18:16:52.674Z,101299.84
2019-03-22T18:19:21.127Z,101306.07
2019-03-22T18:21:49.583Z,101309.50
2019-03-22T18:26:51.669Z,101317.31
2019-03-22T18:29:20.127Z,101322.02
2019-03-22T18:31:48.621Z,101322.86
2019-03-22T18:34:17.079Z,101315.48
2019-03-22T18:36:45.530Z,101323.61
2019-03-22T18:39:33.246Z,101325.95
2019-03-22T18:42:01.704Z,101328.30
2019-03-22T18:44:49.317Z,101326.55
2019-03-22T18:47:17.772Z,101330.58
2019-03-22T18:49:46.229Z,101324.14
2019-03-22T18:54:48.648Z,101327.02
2019-03-22T19:00:29.508Z,101324.11
2019-03-22T19:05:32.099Z,101326.05
2019-03-22T19:08:00.567Z,101328.75
2019-03-22T19:10:29.044Z,101335.36
2019-03-22T19:13:16.814Z,101333.88
2019-03-22T19:15:45.343Z,101327.66
2019-03-22T19:18:13.799Z,101332.59
2019-03-22T19:20:42.255Z,101330.46
2019-03-22T19:23:10.771Z,101330.06
2019-03-22T19:25:39.225Z,101326.53
2019-03-22T19:28:07.674Z,101329.64
2019-03-22T19:33:29.864Z,101321.86
2019-03-22T19:35:58.354Z,101331.61
2019-03-22T19:38:26.806Z,101328.09
2019-03-22T19:40:55.263Z,101329.88
2019-03-22T19:43:43.099Z,101335.20
2019-03-22T19:46:30.744Z,101328.63
2019-03-22T19:51:32.889Z,101336.55
2019-03-22T19:54:01.350Z,101334.83
2019-03-22T19:56:29.844Z,101334.39
2019-03-22T19:58:58.307Z,101334.38
2019-03-22T20:01:26.765Z,101337.91
2019-03-22T20:04:14.576Z,101337.95
2019-03-22T20:07:02.284Z,101342.36
2019-03-22T20:09:50.079Z,101337.51
2019-03-22T20:12:18.541Z,101346.37
2019-03-22T20:14:47.004Z,101342.39
2019-03-22T20:17:15.506Z,101346.80
2019-03-22T20:19:43.972Z,101340.17
2019-03-22T20:22:12.446Z,101339.73
2019-03-22T20:24:40.936Z,101333.58
2019-03-22T20:27:09.401Z,101341.92
2019-03-22T20:29:40.002Z,101348.95
2019-03-22T20:32:27.410Z,101342.33
2019-03-22T20:34:55.881Z,101338.41
2019-03-22T20:37:24.342Z,101345.41
2019-03-22T20:39:52.849Z,101343.58
2019-03-22T20:42:21.306Z,101347.94
2019-03-22T20:44:49.770Z,101344.89
2019-03-22T20:47:18.293Z,101344.05
2019-03-22T20:49:46.756Z,101339.17
2019-03-22T20:52:34.481Z,101341.37
2019-03-22T21:00:45.123Z,101344.89
2019-03-22T21:03:33.232Z,101336.52
2019-03-22T21:06:04.394Z,101341.38
2019-03-22T21:08:31.919Z,101339.20
2019-03-22T21:11:00.376Z,101337.80
2019-03-22T21:13:28.842Z,101338.68
2019-03-22T21:16:16.678Z,101340.77
2019-03-22T21:18:45.131Z,101340.25
2019-03-22T21:21:13.587Z,101346.78
2019-03-22T21:23:42.114Z,101344.19
2019-03-22T21:26:10.564Z,101345.72
2019-03-22T21:28:39.027Z,101346.27
2019-03-22T21:31:07.597Z,101341.84
2019-03-22T21:33:36.060Z,101344.06
2019-03-22T21:36:04.596Z,101340.17
2019-03-22T21:41:07.443Z,101338.78
2019-03-22T21:43:35.946Z,101344.72
2019-03-22T21:46:23.665Z,101335.56
2019-03-22T21:48:52.153Z,101332.84
2019-03-22T21:51:20.626Z,101337.45
2019-03-22T21:53:49.086Z,101332.69
2019-03-22T21:56:17.584Z,101327.89
2019-03-22T21:58:46.055Z,101329.63
2019-03-22T22:01:14.595Z,101329.94
2019-03-22T22:04:02.497Z,101325.55
2019-03-22T22:06:30.940Z,101332.14
2019-03-22T22:08:59.397Z,101331.59
2019-03-22T22:14:02.321Z,101331.01
2019-03-22T22:16:30.779Z,101336.83
2019-03-22T22:21:52.839Z,101341.13
2019-03-22T22:27:14.406Z,101339.81
2019-03-22T22:32:18.098Z,101341.13
2019-03-22T22:34:46.550Z,101337.30
2019-03-22T22:37:15.073Z,101334.66
2019-03-22T22:39:43.535Z,101339.14
2019-03-22T22:42:52.018Z,101335.99
2019-03-22T22:45:20.485Z,101338.60
2019-03-22T22:47:48.952Z,101343.13
2019-03-22T22:50:17.455Z,101341.06
2019-03-22T22:52:45.909Z,101344.63
2019-03-22T22:55:33.601Z,101342.23
2019-03-22T22:58:02.063Z,101342.52
2019-03-22T23:00:49.900Z,101345.62
2019-03-22T23:03:37.547Z,101347.94
2019-03-22T23:08:39.689Z,101351.95
2019-03-22T23:11:27.440Z,101346.47
2019-03-22T23:13:55.907Z,101349.50
2019-03-22T23:16:43.990Z,101341.19
2019-03-22T23:19:12.474Z,101333.80
2019-03-22T23:22:00.191Z,101336.88
2019-03-22T23:24:28.652Z,101327.35
2019-03-22T23:27:16.387Z,101328.34
2019-03-22T23:29:44.855Z,101325.50
2019-03-22T23:32:13.316Z,101326.84
2019-03-22T23:37:34.739Z,101319.25
2019-03-22T23:43:17.087Z,101314.95
2019-03-22T23:46:04.859Z,101315.07
2019-03-22T23:51:26.538Z,101309.72
2019-03-22T23:53:55.053Z,101309.70
2019-03-22T23:56:23.509Z,101318.69
